Terminal Aerodrome Forecast
Issued by NWS Blacksburg, VA

Home | Current Version | Previous Version | Text Only | Print | Product List | Glossary On
Versions: 1 2 3 4 5 6 7 8 9 10 11 12 13 14
000
FTUS41 KRNK 251739
TAFBLF
TAF
KBLF 251739Z 2518/2618 09004KT P6SM SCT250
      TEMPO 2609/2612 4SM BR SCT005
     FM261200 05004KT P6SM SCT035=

USA.gov is the U.S. government's official web portal to all federal, state and local government web resources and services.